sensor_id;sensor_type;location;lat;lon;timestamp;P1;durP1;ratioP1;P2;durP2;ratioP2
21675;SDS011;10999;51.332;9.458;2022-12-10T00:01:05;23.48;;;8.73;;
21675;SDS011;10999;51.332;9.458;2022-12-10T00:03:36;17.67;;;7.15;;
21675;SDS011;10999;51.332;9.458;2022-12-10T00:06:04;22.08;;;8.60;;
21675;SDS011;10999;51.332;9.458;2022-12-10T00:08:33;18.25;;;7.65;;
21675;SDS011;10999;51.332;9.458;2022-12-10T00:11:04;18.17;;;8.35;;
21675;SDS011;10999;51.332;9.458;2022-12-10T00:13:33;20.15;;;8.23;;
21675;SDS011;10999;51.332;9.458;2022-12-10T00:16:00;19.58;;;8.50;;
21675;SDS011;10999;51.332;9.458;2022-12-10T00:18:27;21.55;;;9.25;;
21675;SDS011;10999;51.332;9.458;2022-12-10T00:20:54;22.80;;;9.02;;
21675;SDS011;10999;51.332;9.458;2022-12-10T00:23:21;22.85;;;9.05;;
21675;SDS011;10999;51.332;9.458;2022-12-10T00:25:49;21.48;;;9.50;;
21675;SDS011;10999;51.332;9.458;2022-12-10T00:28:15;22.13;;;9.30;;
21675;SDS011;10999;51.332;9.458;2022-12-10T00:30:42;21.35;;;9.43;;
21675;SDS011;10999;51.332;9.458;2022-12-10T00:33:08;23.08;;;9.40;;
21675;SDS011;10999;51.332;9.458;2022-12-10T00:35:35;25.08;;;9.05;;
21675;SDS011;10999;51.332;9.458;2022-12-10T00:38:03;20.63;;;9.07;;
21675;SDS011;10999;51.332;9.458;2022-12-10T00:40:29;22.33;;;8.95;;
21675;SDS011;10999;51.332;9.458;2022-12-10T00:42:56;21.67;;;8.57;;
21675;SDS011;10999;51.332;9.458;2022-12-10T00:45:23;23.58;;;10.15;;
21675;SDS011;10999;51.332;9.458;2022-12-10T00:47:49;23.42;;;9.75;;
21675;SDS011;10999;51.332;9.458;2022-12-10T00:50:16;21.85;;;8.93;;
21675;SDS011;10999;51.332;9.458;2022-12-10T00:52:43;21.08;;;9.77;;
21675;SDS011;10999;51.332;9.458;2022-12-10T00:55:09;26.58;;;9.07;;
21675;SDS011;10999;51.332;9.458;2022-12-10T00:57:36;22.05;;;9.18;;
21675;SDS011;10999;51.332;9.458;2022-12-10T01:00:03;23.38;;;10.38;;
21675;SDS011;10999;51.332;9.458;2022-12-10T01:02:30;20.88;;;9.23;;
21675;SDS011;10999;51.332;9.458;2022-12-10T01:04:57;21.30;;;9.25;;
21675;SDS011;10999;51.332;9.458;2022-12-10T01:07:24;22.58;;;9.15;;
21675;SDS011;10999;51.332;9.458;2022-12-10T01:09:50;22.27;;;9.25;;
21675;SDS011;10999;51.332;9.458;2022-12-10T01:12:17;24.75;;;10.02;;
21675;SDS011;10999;51.332;9.458;2022-12-10T01:14:44;26.33;;;10.13;;
21675;SDS011;10999;51.332;9.458;2022-12-10T01:17:10;23.48;;;9.60;;
21675;SDS011;10999;51.332;9.458;2022-12-10T01:19:37;21.85;;;9.32;;
21675;SDS011;10999;51.332;9.458;2022-12-10T01:22:04;22.83;;;9.32;;
21675;SDS011;10999;51.332;9.458;2022-12-10T01:24:31;24.75;;;11.32;;
21675;SDS011;10999;51.332;9.458;2022-12-10T01:26:58;26.25;;;11.00;;
21675;SDS011;10999;51.332;9.458;2022-12-10T01:29:25;21.40;;;8.50;;
21675;SDS011;10999;51.332;9.458;2022-12-10T01:31:54;25.80;;;10.25;;
21675;SDS011;10999;51.332;9.458;2022-12-10T01:34:22;23.67;;;9.35;;
21675;SDS011;10999;51.332;9.458;2022-12-10T01:36:51;21.48;;;9.70;;
21675;SDS011;10999;51.332;9.458;2022-12-10T01:39:20;23.17;;;10.05;;
21675;SDS011;10999;51.332;9.458;2022-12-10T01:41:52;23.05;;;10.95;;
21675;SDS011;10999;51.332;9.458;2022-12-10T01:49:37;22.33;;;9.75;;
21675;SDS011;10999;51.332;9.458;2022-12-10T01:52:05;24.17;;;8.98;;
21675;SDS011;10999;51.332;9.458;2022-12-10T01:54:39;19.73;;;9.38;;
21675;SDS011;10999;51.332;9.458;2022-12-10T01:57:13;24.00;;;8.93;;
21675;SDS011;10999;51.332;9.458;2022-12-10T01:59:47;25.50;;;9.85;;
21675;SDS011;10999;51.332;9.458;2022-12-10T02:02:21;21.92;;;9.40;;
21675;SDS011;10999;51.332;9.458;2022-12-10T02:05:36;22.27;;;10.32;;
21675;SDS011;10999;51.332;9.458;2022-12-10T02:11:37;28.38;;;10.30;;
21675;SDS011;10999;51.332;9.458;2022-12-10T02:13:50;25.58;;;10.18;;
21675;SDS011;10999;51.332;9.458;2022-12-10T02:16:34;23.95;;;9.00;;
21675;SDS011;10999;51.332;9.458;2022-12-10T02:19:15;23.50;;;9.45;;
21675;SDS011;10999;51.332;9.458;2022-12-10T02:22:05;23.55;;;9.85;;
21675;SDS011;10999;51.332;9.458;2022-12-10T02:24:33;22.58;;;9.52;;
21675;SDS011;10999;51.332;9.458;2022-12-10T02:30:08;26.58;;;10.75;;
21675;SDS011;10999;51.332;9.458;2022-12-10T02:32:39;21.48;;;9.27;;
21675;SDS011;10999;51.332;9.458;2022-12-10T02:35:11;25.13;;;9.35;;
21675;SDS011;10999;51.332;9.458;2022-12-10T02:38:01;22.80;;;9.80;;
21675;SDS011;10999;51.332;9.458;2022-12-10T02:40:59;23.70;;;9.15;;
21675;SDS011;10999;51.332;9.458;2022-12-10T02:43:30;22.63;;;9.98;;
21675;SDS011;10999;51.332;9.458;2022-12-10T02:45:58;24.65;;;10.43;;
21675;SDS011;10999;51.332;9.458;2022-12-10T02:48:27;25.50;;;10.50;;
21675;SDS011;10999;51.332;9.458;2022-12-10T02:50:54;25.35;;;9.40;;
21675;SDS011;10999;51.332;9.458;2022-12-10T02:53:21;27.95;;;10.85;;
21675;SDS011;10999;51.332;9.458;2022-12-10T03:03:45;24.58;;;9.13;;
21675;SDS011;10999;51.332;9.458;2022-12-10T03:06:34;24.00;;;10.80;;
21675;SDS011;10999;51.332;9.458;2022-12-10T03:09:09;27.65;;;10.05;;
21675;SDS011;10999;51.332;9.458;2022-12-10T03:12:11;21.85;;;10.02;;
21675;SDS011;10999;51.332;9.458;2022-12-10T03:14:48;23.27;;;10.82;;
21675;SDS011;10999;51.332;9.458;2022-12-10T03:17:15;23.77;;;9.88;;
21675;SDS011;10999;51.332;9.458;2022-12-10T03:19:44;30.85;;;10.45;;
21675;SDS011;10999;51.332;9.458;2022-12-10T03:22:14;26.40;;;11.02;;
21675;SDS011;10999;51.332;9.458;2022-12-10T03:24:44;25.13;;;9.90;;
21675;SDS011;10999;51.332;9.458;2022-12-10T03:27:11;22.92;;;9.07;;
21675;SDS011;10999;51.332;9.458;2022-12-10T03:29:47;26.90;;;10.75;;
21675;SDS011;10999;51.332;9.458;2022-12-10T03:32:16;25.08;;;9.88;;
21675;SDS011;10999;51.332;9.458;2022-12-10T03:34:44;24.38;;;10.45;;
21675;SDS011;10999;51.332;9.458;2022-12-10T03:37:11;24.17;;;10.18;;
21675;SDS011;10999;51.332;9.458;2022-12-10T03:39:39;23.95;;;10.10;;
21675;SDS011;10999;51.332;9.458;2022-12-10T03:42:08;27.45;;;10.25;;
21675;SDS011;10999;51.332;9.458;2022-12-10T03:44:36;25.10;;;10.10;;
21675;SDS011;10999;51.332;9.458;2022-12-10T03:47:05;26.90;;;10.98;;
21675;SDS011;10999;51.332;9.458;2022-12-10T03:49:34;26.42;;;10.55;;
21675;SDS011;10999;51.332;9.458;2022-12-10T03:52:01;32.65;;;11.50;;
21675;SDS011;10999;51.332;9.458;2022-12-10T03:54:28;28.38;;;11.40;;
21675;SDS011;10999;51.332;9.458;2022-12-10T03:56:54;23.45;;;10.95;;
21675;SDS011;10999;51.332;9.458;2022-12-10T03:59:21;23.95;;;10.38;;
21675;SDS011;10999;51.332;9.458;2022-12-10T04:01:48;27.33;;;11.35;;
21675;SDS011;10999;51.332;9.458;2022-12-10T04:04:14;26.00;;;11.52;;
21675;SDS011;10999;51.332;9.458;2022-12-10T04:06:41;25.10;;;9.48;;
21675;SDS011;10999;51.332;9.458;2022-12-10T04:09:09;24.55;;;9.65;;
21675;SDS011;10999;51.332;9.458;2022-12-10T04:11:36;22.30;;;8.93;;
21675;SDS011;10999;51.332;9.458;2022-12-10T04:14:03;24.38;;;9.50;;
21675;SDS011;10999;51.332;9.458;2022-12-10T04:16:48;26.42;;;10.80;;
21675;SDS011;10999;51.332;9.458;2022-12-10T04:19:16;25.70;;;11.25;;
21675;SDS011;10999;51.332;9.458;2022-12-10T04:21:44;24.15;;;10.43;;
21675;SDS011;10999;51.332;9.458;2022-12-10T04:24:31;25.55;;;10.77;;
21675;SDS011;10999;51.332;9.458;2022-12-10T04:27:21;26.15;;;10.10;;
21675;SDS011;10999;51.332;9.458;2022-12-10T04:29:49;22.85;;;10.18;;
21675;SDS011;10999;51.332;9.458;2022-12-10T04:32:16;22.83;;;9.98;;
21675;SDS011;10999;51.332;9.458;2022-12-10T04:34:44;25.98;;;12.27;;
21675;SDS011;10999;51.332;9.458;2022-12-10T04:37:11;24.58;;;10.52;;
21675;SDS011;10999;51.332;9.458;2022-12-10T04:39:38;25.48;;;10.52;;
21675;SDS011;10999;51.332;9.458;2022-12-10T04:42:06;31.27;;;12.23;;
21675;SDS011;10999;51.332;9.458;2022-12-10T04:44:33;25.10;;;11.40;;
21675;SDS011;10999;51.332;9.458;2022-12-10T04:47:01;28.73;;;11.65;;
21675;SDS011;10999;51.332;9.458;2022-12-10T04:49:29;28.75;;;10.85;;
21675;SDS011;10999;51.332;9.458;2022-12-10T04:51:55;26.33;;;11.30;;
21675;SDS011;10999;51.332;9.458;2022-12-10T04:54:22;28.38;;;11.82;;
21675;SDS011;10999;51.332;9.458;2022-12-10T04:56:49;34.83;;;13.38;;
21675;SDS011;10999;51.332;9.458;2022-12-10T04:59:16;34.10;;;12.93;;
21675;SDS011;10999;51.332;9.458;2022-12-10T05:01:43;28.75;;;13.05;;
21675;SDS011;10999;51.332;9.458;2022-12-10T05:04:11;32.45;;;13.43;;
21675;SDS011;10999;51.332;9.458;2022-12-10T05:06:40;34.55;;;13.10;;
21675;SDS011;10999;51.332;9.458;2022-12-10T05:09:07;30.38;;;13.05;;
21675;SDS011;10999;51.332;9.458;2022-12-10T05:11:36;32.55;;;12.50;;
21675;SDS011;10999;51.332;9.458;2022-12-10T05:14:03;34.67;;;12.80;;
21675;SDS011;10999;51.332;9.458;2022-12-10T05:16:31;40.38;;;14.95;;
21675;SDS011;10999;51.332;9.458;2022-12-10T05:18:58;31.65;;;13.30;;
21675;SDS011;10999;51.332;9.458;2022-12-10T05:21:26;33.63;;;12.63;;
21675;SDS011;10999;51.332;9.458;2022-12-10T05:24:14;34.83;;;12.27;;
21675;SDS011;10999;51.332;9.458;2022-12-10T05:26:41;37.85;;;13.52;;
21675;SDS011;10999;51.332;9.458;2022-12-10T05:29:08;37.67;;;14.75;;
21675;SDS011;10999;51.332;9.458;2022-12-10T05:31:36;37.80;;;14.15;;
21675;SDS011;10999;51.332;9.458;2022-12-10T05:34:02;42.90;;;15.68;;
21675;SDS011;10999;51.332;9.458;2022-12-10T05:36:30;45.60;;;15.82;;
21675;SDS011;10999;51.332;9.458;2022-12-10T05:38:58;43.17;;;14.98;;
21675;SDS011;10999;51.332;9.458;2022-12-10T05:41:26;37.47;;;13.55;;
21675;SDS011;10999;51.332;9.458;2022-12-10T05:43:55;39.08;;;14.50;;
21675;SDS011;10999;51.332;9.458;2022-12-10T05:46:25;37.72;;;16.20;;
21675;SDS011;10999;51.332;9.458;2022-12-10T05:48:53;36.00;;;13.88;;
21675;SDS011;10999;51.332;9.458;2022-12-10T05:51:22;41.90;;;16.70;;
21675;SDS011;10999;51.332;9.458;2022-12-10T05:53:50;36.08;;;13.55;;
21675;SDS011;10999;51.332;9.458;2022-12-10T05:56:19;36.92;;;14.93;;
21675;SDS011;10999;51.332;9.458;2022-12-10T05:58:48;36.03;;;15.43;;
21675;SDS011;10999;51.332;9.458;2022-12-10T06:01:17;36.10;;;13.10;;
21675;SDS011;10999;51.332;9.458;2022-12-10T06:03:46;35.58;;;14.75;;
21675;SDS011;10999;51.332;9.458;2022-12-10T06:06:13;34.78;;;14.43;;
21675;SDS011;10999;51.332;9.458;2022-12-10T06:08:40;41.08;;;14.50;;
21675;SDS011;10999;51.332;9.458;2022-12-10T06:11:08;41.90;;;13.65;;
21675;SDS011;10999;51.332;9.458;2022-12-10T06:13:36;36.20;;;13.80;;
21675;SDS011;10999;51.332;9.458;2022-12-10T06:16:04;41.05;;;13.68;;
21675;SDS011;10999;51.332;9.458;2022-12-10T06:18:32;45.45;;;16.65;;
21675;SDS011;10999;51.332;9.458;2022-12-10T06:20:59;40.55;;;14.65;;
21675;SDS011;10999;51.332;9.458;2022-12-10T06:23:28;43.25;;;14.52;;
21675;SDS011;10999;51.332;9.458;2022-12-10T06:25:55;39.08;;;14.10;;
21675;SDS011;10999;51.332;9.458;2022-12-10T06:30:48;34.55;;;12.52;;
21675;SDS011;10999;51.332;9.458;2022-12-10T06:35:41;46.35;;;15.50;;
21675;SDS011;10999;51.332;9.458;2022-12-10T06:38:08;39.85;;;14.23;;
21675;SDS011;10999;51.332;9.458;2022-12-10T06:43:04;37.38;;;13.10;;
21675;SDS011;10999;51.332;9.458;2022-12-10T06:47:57;39.50;;;11.50;;
21675;SDS011;10999;51.332;9.458;2022-12-10T06:50:24;46.75;;;13.88;;
21675;SDS011;10999;51.332;9.458;2022-12-10T06:55:20;33.95;;;11.88;;
21675;SDS011;10999;51.332;9.458;2022-12-10T06:57:47;48.15;;;15.90;;
21675;SDS011;10999;51.332;9.458;2022-12-10T07:00:17;41.72;;;13.20;;
21675;SDS011;10999;51.332;9.458;2022-12-10T07:02:47;39.60;;;13.45;;
21675;SDS011;10999;51.332;9.458;2022-12-10T07:05:14;45.70;;;15.20;;
21675;SDS011;10999;51.332;9.458;2022-12-10T07:07:43;42.83;;;14.63;;
21675;SDS011;10999;51.332;9.458;2022-12-10T07:10:10;43.58;;;15.20;;
21675;SDS011;10999;51.332;9.458;2022-12-10T07:12:37;39.92;;;14.57;;
21675;SDS011;10999;51.332;9.458;2022-12-10T07:17:30;38.28;;;12.15;;
21675;SDS011;10999;51.332;9.458;2022-12-10T07:22:24;40.50;;;13.00;;
21675;SDS011;10999;51.332;9.458;2022-12-10T07:24:51;41.30;;;13.85;;
21675;SDS011;10999;51.332;9.458;2022-12-10T07:27:19;35.20;;;12.82;;
21675;SDS011;10999;51.332;9.458;2022-12-10T07:29:46;40.10;;;14.27;;
21675;SDS011;10999;51.332;9.458;2022-12-10T07:32:13;44.22;;;13.70;;
21675;SDS011;10999;51.332;9.458;2022-12-10T07:34:40;34.05;;;11.90;;
21675;SDS011;10999;51.332;9.458;2022-12-10T07:37:06;38.75;;;12.88;;
21675;SDS011;10999;51.332;9.458;2022-12-10T07:41:59;39.42;;;13.68;;
21675;SDS011;10999;51.332;9.458;2022-12-10T07:44:26;39.47;;;11.75;;
21675;SDS011;10999;51.332;9.458;2022-12-10T07:46:53;40.30;;;13.60;;
21675;SDS011;10999;51.332;9.458;2022-12-10T07:49:21;41.00;;;14.23;;
21675;SDS011;10999;51.332;9.458;2022-12-10T07:51:49;41.50;;;13.95;;
21675;SDS011;10999;51.332;9.458;2022-12-10T07:54:16;39.38;;;15.27;;
21675;SDS011;10999;51.332;9.458;2022-12-10T07:56:43;36.90;;;14.57;;
21675;SDS011;10999;51.332;9.458;2022-12-10T07:59:10;39.60;;;12.05;;
21675;SDS011;10999;51.332;9.458;2022-12-10T08:01:37;40.47;;;13.18;;
21675;SDS011;10999;51.332;9.458;2022-12-10T08:04:05;41.25;;;12.73;;
21675;SDS011;10999;51.332;9.458;2022-12-10T08:06:31;38.97;;;13.23;;
21675;SDS011;10999;51.332;9.458;2022-12-10T08:08:59;38.03;;;12.60;;
21675;SDS011;10999;51.332;9.458;2022-12-10T08:11:27;37.47;;;14.52;;
21675;SDS011;10999;51.332;9.458;2022-12-10T08:13:54;43.17;;;13.73;;
21675;SDS011;10999;51.332;9.458;2022-12-10T08:16:23;35.75;;;12.70;;
21675;SDS011;10999;51.332;9.458;2022-12-10T08:18:53;41.38;;;15.13;;
21675;SDS011;10999;51.332;9.458;2022-12-10T08:21:22;38.35;;;12.60;;
21675;SDS011;10999;51.332;9.458;2022-12-10T08:23:49;40.08;;;15.00;;
21675;SDS011;10999;51.332;9.458;2022-12-10T08:26:18;42.20;;;13.57;;
21675;SDS011;10999;51.332;9.458;2022-12-10T08:28:46;39.47;;;13.40;;
21675;SDS011;10999;51.332;9.458;2022-12-10T08:31:14;38.42;;;13.90;;
21675;SDS011;10999;51.332;9.458;2022-12-10T08:33:42;40.10;;;12.73;;
21675;SDS011;10999;51.332;9.458;2022-12-10T08:36:13;38.50;;;12.65;;
21675;SDS011;10999;51.332;9.458;2022-12-10T08:38:41;38.22;;;12.27;;
21675;SDS011;10999;51.332;9.458;2022-12-10T08:41:08;39.00;;;14.23;;
21675;SDS011;10999;51.332;9.458;2022-12-10T08:43:43;38.05;;;13.20;;
21675;SDS011;10999;51.332;9.458;2022-12-10T08:46:10;35.83;;;12.00;;
21675;SDS011;10999;51.332;9.458;2022-12-10T08:48:38;40.28;;;12.90;;
21675;SDS011;10999;51.332;9.458;2022-12-10T08:51:06;39.10;;;12.82;;
21675;SDS011;10999;51.332;9.458;2022-12-10T08:53:33;45.13;;;14.13;;
21675;SDS011;10999;51.332;9.458;2022-12-10T08:56:01;39.55;;;13.52;;
21675;SDS011;10999;51.332;9.458;2022-12-10T08:58:28;36.83;;;12.70;;
21675;SDS011;10999;51.332;9.458;2022-12-10T09:03:21;37.03;;;12.40;;
21675;SDS011;10999;51.332;9.458;2022-12-10T09:05:49;39.72;;;14.25;;
21675;SDS011;10999;51.332;9.458;2022-12-10T09:08:16;32.60;;;13.35;;
21675;SDS011;10999;51.332;9.458;2022-12-10T09:10:43;36.10;;;12.60;;
21675;SDS011;10999;51.332;9.458;2022-12-10T09:13:09;29.85;;;10.93;;
21675;SDS011;10999;51.332;9.458;2022-12-10T09:15:36;34.70;;;11.38;;
21675;SDS011;10999;51.332;9.458;2022-12-10T09:18:03;32.00;;;11.60;;
21675;SDS011;10999;51.332;9.458;2022-12-10T09:20:30;36.17;;;12.80;;
21675;SDS011;10999;51.332;9.458;2022-12-10T09:25:23;34.47;;;11.20;;
21675;SDS011;10999;51.332;9.458;2022-12-10T09:27:49;30.15;;;10.95;;
21675;SDS011;10999;51.332;9.458;2022-12-10T09:30:16;31.90;;;10.55;;
21675;SDS011;10999;51.332;9.458;2022-12-10T09:32:43;32.13;;;12.00;;
21675;SDS011;10999;51.332;9.458;2022-12-10T09:35:10;23.85;;;9.93;;
21675;SDS011;10999;51.332;9.458;2022-12-10T09:37:37;27.15;;;11.00;;
21675;SDS011;10999;51.332;9.458;2022-12-10T09:40:04;34.20;;;11.32;;
21675;SDS011;10999;51.332;9.458;2022-12-10T09:51:09;23.05;;;9.85;;
21675;SDS011;10999;51.332;9.458;2022-12-10T09:53:44;29.30;;;10.60;;
21675;SDS011;10999;51.332;9.458;2022-12-10T09:56:18;25.23;;;10.88;;
21675;SDS011;10999;51.332;9.458;2022-12-10T09:58:48;28.85;;;10.88;;
21675;SDS011;10999;51.332;9.458;2022-12-10T10:01:16;29.30;;;10.80;;
21675;SDS011;10999;51.332;9.458;2022-12-10T10:03:46;25.98;;;9.65;;
21675;SDS011;10999;51.332;9.458;2022-12-10T10:06:14;29.73;;;10.27;;
21675;SDS011;10999;51.332;9.458;2022-12-10T10:11:28;31.38;;;11.90;;
21675;SDS011;10999;51.332;9.458;2022-12-10T10:13:58;33.20;;;11.63;;
21675;SDS011;10999;51.332;9.458;2022-12-10T10:16:34;28.35;;;11.05;;
21675;SDS011;10999;51.332;9.458;2022-12-10T10:19:12;26.70;;;11.13;;
21675;SDS011;10999;51.332;9.458;2022-12-10T10:21:42;27.90;;;11.32;;
21675;SDS011;10999;51.332;9.458;2022-12-10T10:27:10;27.77;;;10.07;;
21675;SDS011;10999;51.332;9.458;2022-12-10T10:29:37;32.40;;;11.00;;
21675;SDS011;10999;51.332;9.458;2022-12-10T10:35:00;29.42;;;11.02;;
21675;SDS011;10999;51.332;9.458;2022-12-10T10:37:38;25.90;;;10.38;;
21675;SDS011;10999;51.332;9.458;2022-12-10T10:40:28;31.60;;;11.50;;
21675;SDS011;10999;51.332;9.458;2022-12-10T10:43:05;27.20;;;10.43;;
21675;SDS011;10999;51.332;9.458;2022-12-10T10:50:50;31.35;;;10.00;;
21675;SDS011;10999;51.332;9.458;2022-12-10T10:56:18;24.70;;;9.35;;
21675;SDS011;10999;51.332;9.458;2022-12-10T10:58:53;27.50;;;10.05;;
21675;SDS011;10999;51.332;9.458;2022-12-10T11:01:24;27.98;;;10.80;;
21675;SDS011;10999;51.332;9.458;2022-12-10T11:03:54;30.50;;;11.38;;
21675;SDS011;10999;51.332;9.458;2022-12-10T11:06:23;32.70;;;10.73;;
21675;SDS011;10999;51.332;9.458;2022-12-10T11:08:51;35.17;;;11.52;;
21675;SDS011;10999;51.332;9.458;2022-12-10T11:11:25;33.45;;;10.35;;
21675;SDS011;10999;51.332;9.458;2022-12-10T11:14:43;33.33;;;12.05;;
21675;SDS011;10999;51.332;9.458;2022-12-10T11:16:49;30.80;;;10.23;;
21675;SDS011;10999;51.332;9.458;2022-12-10T11:19:20;28.90;;;10.43;;
21675;SDS011;10999;51.332;9.458;2022-12-10T11:21:49;31.17;;;10.30;;
21675;SDS011;10999;51.332;9.458;2022-12-10T11:24:16;24.63;;;8.95;;
21675;SDS011;10999;51.332;9.458;2022-12-10T11:27:20;28.70;;;12.07;;
21675;SDS011;10999;51.332;9.458;2022-12-10T11:29:52;29.58;;;11.20;;
21675;SDS011;10999;51.332;9.458;2022-12-10T11:38:02;35.63;;;11.57;;
21675;SDS011;10999;51.332;9.458;2022-12-10T11:51:50;22.67;;;9.25;;
21675;SDS011;10999;51.332;9.458;2022-12-10T11:54:55;24.33;;;8.80;;
21675;SDS011;10999;51.332;9.458;2022-12-10T12:08:35;21.92;;;8.57;;
21675;SDS011;10999;51.332;9.458;2022-12-10T12:11:20;26.90;;;8.85;;
21675;SDS011;10999;51.332;9.458;2022-12-10T12:14:13;27.02;;;11.05;;
21675;SDS011;10999;51.332;9.458;2022-12-10T12:16:49;24.05;;;8.75;;
21675;SDS011;10999;51.332;9.458;2022-12-10T12:19:32;26.70;;;8.68;;
21675;SDS011;10999;51.332;9.458;2022-12-10T12:22:09;22.65;;;9.35;;
21675;SDS011;10999;51.332;9.458;2022-12-10T12:24:41;23.77;;;8.20;;
21675;SDS011;10999;51.332;9.458;2022-12-10T12:40:59;18.45;;;7.15;;
21675;SDS011;10999;51.332;9.458;2022-12-10T12:46:04;19.77;;;8.00;;
21675;SDS011;10999;51.332;9.458;2022-12-10T12:48:39;22.30;;;7.78;;
21675;SDS011;10999;51.332;9.458;2022-12-10T12:51:13;20.92;;;8.07;;
21675;SDS011;10999;51.332;9.458;2022-12-10T12:54:03;24.27;;;8.82;;
21675;SDS011;10999;51.332;9.458;2022-12-10T12:56:41;20.27;;;7.25;;
21675;SDS011;10999;51.332;9.458;2022-12-10T12:59:31;22.17;;;7.93;;
21675;SDS011;10999;51.332;9.458;2022-12-10T13:02:15;24.63;;;9.25;;
21675;SDS011;10999;51.332;9.458;2022-12-10T13:04:46;19.30;;;7.32;;
21675;SDS011;10999;51.332;9.458;2022-12-10T13:14:54;17.50;;;6.72;;
21675;SDS011;10999;51.332;9.458;2022-12-10T13:17:59;20.20;;;6.72;;
21675;SDS011;10999;51.332;9.458;2022-12-10T13:38:55;16.48;;;6.93;;
21675;SDS011;10999;51.332;9.458;2022-12-10T13:41:40;20.52;;;8.25;;
21675;SDS011;10999;51.332;9.458;2022-12-10T13:44:47;22.63;;;8.30;;
21675;SDS011;10999;51.332;9.458;2022-12-10T13:47:24;14.95;;;6.43;;
21675;SDS011;10999;51.332;9.458;2022-12-10T13:50:03;17.75;;;7.28;;
21675;SDS011;10999;51.332;9.458;2022-12-10T14:01:08;21.10;;;8.68;;
21675;SDS011;10999;51.332;9.458;2022-12-10T14:04:00;22.75;;;8.55;;
21675;SDS011;10999;51.332;9.458;2022-12-10T14:06:40;17.27;;;7.40;;
21675;SDS011;10999;51.332;9.458;2022-12-10T14:09:13;20.17;;;8.68;;
21675;SDS011;10999;51.332;9.458;2022-12-10T14:11:47;22.83;;;10.20;;
21675;SDS011;10999;51.332;9.458;2022-12-10T14:15:03;23.17;;;9.75;;
21675;SDS011;10999;51.332;9.458;2022-12-10T14:17:13;22.20;;;7.75;;
21675;SDS011;10999;51.332;9.458;2022-12-10T14:19:49;24.35;;;10.07;;
21675;SDS011;10999;51.332;9.458;2022-12-10T14:22:25;24.20;;;9.52;;
21675;SDS011;10999;51.332;9.458;2022-12-10T14:25:01;28.42;;;10.43;;
21675;SDS011;10999;51.332;9.458;2022-12-10T14:27:32;26.92;;;9.27;;
21675;SDS011;10999;51.332;9.458;2022-12-10T14:30:03;25.02;;;9.65;;
21675;SDS011;10999;51.332;9.458;2022-12-10T14:32:33;24.80;;;9.50;;
21675;SDS011;10999;51.332;9.458;2022-12-10T14:35:04;27.45;;;10.82;;
21675;SDS011;10999;51.332;9.458;2022-12-10T14:37:34;26.30;;;10.88;;
21675;SDS011;10999;51.332;9.458;2022-12-10T14:40:04;27.08;;;10.98;;
21675;SDS011;10999;51.332;9.458;2022-12-10T14:42:33;30.40;;;10.48;;
21675;SDS011;10999;51.332;9.458;2022-12-10T14:45:03;25.63;;;9.45;;
21675;SDS011;10999;51.332;9.458;2022-12-10T14:47:33;28.02;;;9.55;;
21675;SDS011;10999;51.332;9.458;2022-12-10T14:50:12;22.65;;;9.15;;
21675;SDS011;10999;51.332;9.458;2022-12-10T14:52:45;23.60;;;9.65;;
21675;SDS011;10999;51.332;9.458;2022-12-10T14:55:17;22.83;;;8.68;;
21675;SDS011;10999;51.332;9.458;2022-12-10T14:57:49;22.70;;;8.55;;
21675;SDS011;10999;51.332;9.458;2022-12-10T15:00:20;22.85;;;9.55;;
21675;SDS011;10999;51.332;9.458;2022-12-10T15:02:51;20.90;;;8.35;;
21675;SDS011;10999;51.332;9.458;2022-12-10T15:05:24;17.52;;;8.00;;
21675;SDS011;10999;51.332;9.458;2022-12-10T15:07:57;21.60;;;9.32;;
21675;SDS011;10999;51.332;9.458;2022-12-10T15:10:28;24.35;;;8.90;;
21675;SDS011;10999;51.332;9.458;2022-12-10T15:13:06;21.30;;;8.38;;
21675;SDS011;10999;51.332;9.458;2022-12-10T15:15:40;22.75;;;9.40;;
21675;SDS011;10999;51.332;9.458;2022-12-10T15:23:17;21.30;;;7.85;;
21675;SDS011;10999;51.332;9.458;2022-12-10T15:28:30;17.50;;;7.28;;
21675;SDS011;10999;51.332;9.458;2022-12-10T15:31:08;17.63;;;7.00;;
21675;SDS011;10999;51.332;9.458;2022-12-10T15:33:43;15.90;;;7.53;;
21675;SDS011;10999;51.332;9.458;2022-12-10T15:38:48;16.70;;;6.63;;
21675;SDS011;10999;51.332;9.458;2022-12-10T15:44:15;21.10;;;7.32;;
21675;SDS011;10999;51.332;9.458;2022-12-10T15:46:47;16.65;;;6.65;;
21675;SDS011;10999;51.332;9.458;2022-12-10T15:49:43;15.32;;;5.60;;
21675;SDS011;10999;51.332;9.458;2022-12-10T15:52:29;15.35;;;5.80;;
21675;SDS011;10999;51.332;9.458;2022-12-10T15:54:57;15.82;;;6.25;;
21675;SDS011;10999;51.332;9.458;2022-12-10T15:57:25;19.90;;;8.10;;
21675;SDS011;10999;51.332;9.458;2022-12-10T16:00:03;16.92;;;8.10;;
21675;SDS011;10999;51.332;9.458;2022-12-10T16:05:16;20.73;;;6.80;;
21675;SDS011;10999;51.332;9.458;2022-12-10T16:07:45;19.50;;;8.07;;
21675;SDS011;10999;51.332;9.458;2022-12-10T16:10:14;15.55;;;7.13;;
21675;SDS011;10999;51.332;9.458;2022-12-10T16:12:42;15.80;;;6.68;;
21675;SDS011;10999;51.332;9.458;2022-12-10T16:15:15;17.95;;;7.38;;
21675;SDS011;10999;51.332;9.458;2022-12-10T16:17:48;16.13;;;6.72;;
21675;SDS011;10999;51.332;9.458;2022-12-10T16:20:25;18.08;;;7.43;;
21675;SDS011;10999;51.332;9.458;2022-12-10T16:22:53;18.02;;;7.20;;
21675;SDS011;10999;51.332;9.458;2022-12-10T16:25:21;16.33;;;6.38;;
21675;SDS011;10999;51.332;9.458;2022-12-10T16:27:49;17.00;;;7.82;;
21675;SDS011;10999;51.332;9.458;2022-12-10T16:30:20;15.55;;;6.90;;
21675;SDS011;10999;51.332;9.458;2022-12-10T16:33:01;16.63;;;6.93;;
21675;SDS011;10999;51.332;9.458;2022-12-10T16:35:29;19.05;;;6.85;;
21675;SDS011;10999;51.332;9.458;2022-12-10T16:37:56;19.55;;;7.45;;
21675;SDS011;10999;51.332;9.458;2022-12-10T16:40:25;18.10;;;6.90;;
21675;SDS011;10999;51.332;9.458;2022-12-10T16:42:53;14.45;;;6.78;;
21675;SDS011;10999;51.332;9.458;2022-12-10T16:45:26;19.92;;;7.57;;
21675;SDS011;10999;51.332;9.458;2022-12-10T16:47:55;19.13;;;7.05;;
21675;SDS011;10999;51.332;9.458;2022-12-10T16:50:22;17.77;;;7.32;;
21675;SDS011;10999;51.332;9.458;2022-12-10T16:52:50;17.98;;;7.53;;
21675;SDS011;10999;51.332;9.458;2022-12-10T16:55:21;23.25;;;9.60;;
21675;SDS011;10999;51.332;9.458;2022-12-10T17:00:19;17.35;;;7.40;;
21675;SDS011;10999;51.332;9.458;2022-12-10T17:02:48;22.60;;;8.93;;
21675;SDS011;10999;51.332;9.458;2022-12-10T17:05:27;21.60;;;9.02;;
21675;SDS011;10999;51.332;9.458;2022-12-10T17:07:56;18.25;;;8.38;;
21675;SDS011;10999;51.332;9.458;2022-12-10T17:10:24;16.35;;;7.75;;
21675;SDS011;10999;51.332;9.458;2022-12-10T17:13:10;24.48;;;9.00;;
21675;SDS011;10999;51.332;9.458;2022-12-10T17:15:39;18.35;;;7.53;;
21675;SDS011;10999;51.332;9.458;2022-12-10T17:18:11;23.83;;;9.50;;
21675;SDS011;10999;51.332;9.458;2022-12-10T17:20:39;20.83;;;9.50;;
21675;SDS011;10999;51.332;9.458;2022-12-10T17:23:06;21.42;;;9.10;;
21675;SDS011;10999;51.332;9.458;2022-12-10T17:25:33;19.48;;;7.97;;
21675;SDS011;10999;51.332;9.458;2022-12-10T17:28:00;19.08;;;8.30;;
21675;SDS011;10999;51.332;9.458;2022-12-10T17:30:26;20.58;;;10.88;;
21675;SDS011;10999;51.332;9.458;2022-12-10T17:32:53;25.10;;;10.18;;
21675;SDS011;10999;51.332;9.458;2022-12-10T17:35:20;20.52;;;8.75;;
21675;SDS011;10999;51.332;9.458;2022-12-10T17:37:47;22.33;;;8.48;;